sensor_id;sensor_type;location;lat;lon;timestamp;P1;durP1;ratioP1;P2;durP2;ratioP2
3487;SDS011;38546;48.170;11.724;2023-05-02T00:00:00;10.40;;;7.00;;
3487;SDS011;38546;48.170;11.724;2023-05-02T00:02:49;12.07;;;7.33;;
3487;SDS011;38546;48.170;11.724;2023-05-02T00:05:39;11.60;;;7.80;;
3487;SDS011;38546;48.170;11.724;2023-05-02T00:08:28;11.93;;;7.27;;
3487;SDS011;38546;48.170;11.724;2023-05-02T00:11:18;9.80;;;7.47;;
3487;SDS011;38546;48.170;11.724;2023-05-02T00:14:07;8.93;;;6.93;;
3487;SDS011;38546;48.170;11.724;2023-05-02T00:16:57;9.83;;;7.03;;
3487;SDS011;38546;48.170;11.724;2023-05-02T00:19:46;10.93;;;6.83;;
3487;SDS011;38546;48.170;11.724;2023-05-02T00:22:35;13.43;;;6.60;;
3487;SDS011;38546;48.170;11.724;2023-05-02T00:25:25;10.40;;;7.40;;
3487;SDS011;38546;48.170;11.724;2023-05-02T00:28:15;7.63;;;6.00;;
3487;SDS011;38546;48.170;11.724;2023-05-02T00:31:04;9.60;;;7.27;;
3487;SDS011;38546;48.170;11.724;2023-05-02T00:33:54;7.23;;;5.87;;
3487;SDS011;38546;48.170;11.724;2023-05-02T00:36:44;11.17;;;6.83;;
3487;SDS011;38546;48.170;11.724;2023-05-02T00:39:33;10.90;;;7.00;;
3487;SDS011;38546;48.170;11.724;2023-05-02T00:42:23;8.57;;;6.23;;
3487;SDS011;38546;48.170;11.724;2023-05-02T00:45:13;11.00;;;7.60;;
3487;SDS011;38546;48.170;11.724;2023-05-02T00:48:02;8.37;;;6.60;;
3487;SDS011;38546;48.170;11.724;2023-05-02T00:50:52;8.87;;;6.43;;
3487;SDS011;38546;48.170;11.724;2023-05-02T00:53:41;8.23;;;6.60;;
3487;SDS011;38546;48.170;11.724;2023-05-02T00:56:31;8.13;;;6.50;;
3487;SDS011;38546;48.170;11.724;2023-05-02T00:59:20;10.70;;;7.37;;
3487;SDS011;38546;48.170;11.724;2023-05-02T01:02:14;12.23;;;6.60;;
3487;SDS011;38546;48.170;11.724;2023-05-02T01:05:32;10.63;;;6.90;;
3487;SDS011;38546;48.170;11.724;2023-05-02T01:14:03;8.97;;;6.60;;
3487;SDS011;38546;48.170;11.724;2023-05-02T01:16:56;8.60;;;6.87;;
3487;SDS011;38546;48.170;11.724;2023-05-02T01:19:53;11.30;;;7.57;;
3487;SDS011;38546;48.170;11.724;2023-05-02T01:22:53;9.40;;;6.73;;
3487;SDS011;38546;48.170;11.724;2023-05-02T01:26:42;10.33;;;6.90;;
3487;SDS011;38546;48.170;11.724;2023-05-02T01:29:42;12.03;;;7.97;;
3487;SDS011;38546;48.170;11.724;2023-05-02T01:32:33;11.83;;;7.07;;
3487;SDS011;38546;48.170;11.724;2023-05-02T01:35:27;12.03;;;7.60;;
3487;SDS011;38546;48.170;11.724;2023-05-02T01:38:18;8.93;;;6.13;;
3487;SDS011;38546;48.170;11.724;2023-05-02T01:41:09;8.87;;;7.10;;
3487;SDS011;38546;48.170;11.724;2023-05-02T01:44:00;10.60;;;7.87;;
3487;SDS011;38546;48.170;11.724;2023-05-02T01:46:51;9.90;;;7.20;;
3487;SDS011;38546;48.170;11.724;2023-05-02T01:49:42;8.13;;;6.50;;
3487;SDS011;38546;48.170;11.724;2023-05-02T01:52:34;8.40;;;6.73;;
3487;SDS011;38546;48.170;11.724;2023-05-02T01:55:26;9.90;;;7.07;;
3487;SDS011;38546;48.170;11.724;2023-05-02T01:58:16;9.83;;;7.10;;
3487;SDS011;38546;48.170;11.724;2023-05-02T02:01:08;9.90;;;7.20;;
3487;SDS011;38546;48.170;11.724;2023-05-02T02:03:59;13.10;;;8.80;;
3487;SDS011;38546;48.170;11.724;2023-05-02T02:06:50;12.90;;;8.23;;
3487;SDS011;38546;48.170;11.724;2023-05-02T02:09:46;9.80;;;7.17;;
3487;SDS011;38546;48.170;11.724;2023-05-02T02:12:41;9.97;;;7.27;;
3487;SDS011;38546;48.170;11.724;2023-05-02T02:15:40;10.40;;;7.03;;
3487;SDS011;38546;48.170;11.724;2023-05-02T02:18:31;8.80;;;7.10;;
3487;SDS011;38546;48.170;11.724;2023-05-02T02:21:25;10.03;;;7.47;;
3487;SDS011;38546;48.170;11.724;2023-05-02T02:24:19;12.77;;;7.47;;
3487;SDS011;38546;48.170;11.724;2023-05-02T02:27:10;10.97;;;7.57;;
3487;SDS011;38546;48.170;11.724;2023-05-02T02:29:59;9.37;;;7.23;;
3487;SDS011;38546;48.170;11.724;2023-05-02T02:32:49;12.40;;;8.20;;
3487;SDS011;38546;48.170;11.724;2023-05-02T02:35:39;11.90;;;7.50;;
3487;SDS011;38546;48.170;11.724;2023-05-02T02:38:47;10.37;;;7.10;;
3487;SDS011;38546;48.170;11.724;2023-05-02T02:41:58;11.90;;;7.33;;
3487;SDS011;38546;48.170;11.724;2023-05-02T02:46:59;11.70;;;8.10;;
3487;SDS011;38546;48.170;11.724;2023-05-02T02:51:31;8.50;;;7.03;;
3487;SDS011;38546;48.170;11.724;2023-05-02T02:55:59;10.00;;;6.80;;
3487;SDS011;38546;48.170;11.724;2023-05-02T02:59:04;9.80;;;6.80;;
3487;SDS011;38546;48.170;11.724;2023-05-02T03:02:24;12.80;;;7.70;;
3487;SDS011;38546;48.170;11.724;2023-05-02T03:05:17;12.30;;;7.10;;
3487;SDS011;38546;48.170;11.724;2023-05-02T03:08:07;10.07;;;6.90;;
3487;SDS011;38546;48.170;11.724;2023-05-02T03:10:56;9.70;;;7.53;;
3487;SDS011;38546;48.170;11.724;2023-05-02T03:13:46;11.57;;;7.80;;
3487;SDS011;38546;48.170;11.724;2023-05-02T03:16:39;9.90;;;7.40;;
3487;SDS011;38546;48.170;11.724;2023-05-02T03:19:29;9.93;;;7.40;;
3487;SDS011;38546;48.170;11.724;2023-05-02T03:22:19;9.57;;;6.93;;
3487;SDS011;38546;48.170;11.724;2023-05-02T03:25:08;10.30;;;6.53;;
3487;SDS011;38546;48.170;11.724;2023-05-02T03:27:57;9.00;;;6.63;;
3487;SDS011;38546;48.170;11.724;2023-05-02T03:30:46;6.03;;;5.43;;
3487;SDS011;38546;48.170;11.724;2023-05-02T03:33:36;7.63;;;6.10;;
3487;SDS011;38546;48.170;11.724;2023-05-02T03:36:25;8.30;;;6.40;;
3487;SDS011;38546;48.170;11.724;2023-05-02T03:39:15;8.20;;;6.53;;
3487;SDS011;38546;48.170;11.724;2023-05-02T03:42:04;11.00;;;7.20;;
3487;SDS011;38546;48.170;11.724;2023-05-02T03:44:54;7.53;;;5.43;;
3487;SDS011;38546;48.170;11.724;2023-05-02T03:47:44;7.57;;;5.63;;
3487;SDS011;38546;48.170;11.724;2023-05-02T03:50:33;6.50;;;5.30;;
3487;SDS011;38546;48.170;11.724;2023-05-02T03:53:22;6.67;;;5.20;;
3487;SDS011;38546;48.170;11.724;2023-05-02T03:56:11;6.63;;;6.03;;
3487;SDS011;38546;48.170;11.724;2023-05-02T03:59:05;9.90;;;6.83;;
3487;SDS011;38546;48.170;11.724;2023-05-02T04:01:55;6.47;;;5.70;;
3487;SDS011;38546;48.170;11.724;2023-05-02T04:04:44;5.40;;;4.90;;
3487;SDS011;38546;48.170;11.724;2023-05-02T04:07:33;8.10;;;5.63;;
3487;SDS011;38546;48.170;11.724;2023-05-02T04:10:22;6.70;;;5.40;;
3487;SDS011;38546;48.170;11.724;2023-05-02T04:13:12;7.40;;;5.53;;
3487;SDS011;38546;48.170;11.724;2023-05-02T04:16:01;8.33;;;6.20;;
3487;SDS011;38546;48.170;11.724;2023-05-02T04:18:52;6.30;;;5.70;;
3487;SDS011;38546;48.170;11.724;2023-05-02T04:21:41;6.50;;;5.50;;
3487;SDS011;38546;48.170;11.724;2023-05-02T04:24:31;7.20;;;5.37;;
3487;SDS011;38546;48.170;11.724;2023-05-02T04:27:20;8.77;;;6.73;;
3487;SDS011;38546;48.170;11.724;2023-05-02T04:30:09;7.17;;;6.47;;
3487;SDS011;38546;48.170;11.724;2023-05-02T04:32:59;8.53;;;7.10;;
3487;SDS011;38546;48.170;11.724;2023-05-02T04:35:48;9.07;;;6.87;;
3487;SDS011;38546;48.170;11.724;2023-05-02T04:38:38;9.37;;;7.43;;
3487;SDS011;38546;48.170;11.724;2023-05-02T04:41:28;9.70;;;7.10;;
3487;SDS011;38546;48.170;11.724;2023-05-02T04:44:17;11.40;;;8.27;;
3487;SDS011;38546;48.170;11.724;2023-05-02T04:47:06;8.70;;;7.33;;
3487;SDS011;38546;48.170;11.724;2023-05-02T04:49:55;8.50;;;7.10;;
3487;SDS011;38546;48.170;11.724;2023-05-02T04:52:44;9.57;;;6.60;;
3487;SDS011;38546;48.170;11.724;2023-05-02T04:55:34;8.40;;;7.30;;
3487;SDS011;38546;48.170;11.724;2023-05-02T04:58:24;9.87;;;7.00;;
3487;SDS011;38546;48.170;11.724;2023-05-02T05:01:13;9.17;;;7.10;;
3487;SDS011;38546;48.170;11.724;2023-05-02T05:04:03;10.20;;;7.83;;
3487;SDS011;38546;48.170;11.724;2023-05-02T05:06:52;10.10;;;7.97;;
3487;SDS011;38546;48.170;11.724;2023-05-02T05:09:42;10.30;;;7.93;;
3487;SDS011;38546;48.170;11.724;2023-05-02T05:12:31;7.83;;;6.80;;
3487;SDS011;38546;48.170;11.724;2023-05-02T05:15:20;11.40;;;7.73;;
3487;SDS011;38546;48.170;11.724;2023-05-02T05:18:12;8.23;;;6.50;;
3487;SDS011;38546;48.170;11.724;2023-05-02T05:21:01;9.80;;;6.93;;
3487;SDS011;38546;48.170;11.724;2023-05-02T05:23:50;9.67;;;6.80;;
3487;SDS011;38546;48.170;11.724;2023-05-02T05:26:40;10.03;;;7.53;;
3487;SDS011;38546;48.170;11.724;2023-05-02T05:29:30;10.93;;;7.93;;
3487;SDS011;38546;48.170;11.724;2023-05-02T05:32:20;9.27;;;6.77;;
3487;SDS011;38546;48.170;11.724;2023-05-02T05:35:09;10.17;;;6.70;;
3487;SDS011;38546;48.170;11.724;2023-05-02T05:37:59;10.20;;;7.63;;
3487;SDS011;38546;48.170;11.724;2023-05-02T05:40:48;11.93;;;6.97;;
3487;SDS011;38546;48.170;11.724;2023-05-02T05:43:38;11.73;;;7.47;;
3487;SDS011;38546;48.170;11.724;2023-05-02T05:46:28;12.00;;;7.80;;
3487;SDS011;38546;48.170;11.724;2023-05-02T05:49:16;9.67;;;7.13;;
3487;SDS011;38546;48.170;11.724;2023-05-02T05:52:06;9.67;;;7.67;;
3487;SDS011;38546;48.170;11.724;2023-05-02T05:54:55;12.00;;;6.40;;
3487;SDS011;38546;48.170;11.724;2023-05-02T05:57:44;7.73;;;6.63;;
3487;SDS011;38546;48.170;11.724;2023-05-02T06:00:33;9.47;;;7.30;;
3487;SDS011;38546;48.170;11.724;2023-05-02T06:03:23;12.17;;;7.30;;
3487;SDS011;38546;48.170;11.724;2023-05-02T06:06:12;11.87;;;6.40;;
3487;SDS011;38546;48.170;11.724;2023-05-02T06:09:01;9.80;;;7.07;;
3487;SDS011;38546;48.170;11.724;2023-05-02T06:11:51;8.40;;;7.33;;
3487;SDS011;38546;48.170;11.724;2023-05-02T06:14:40;13.10;;;7.30;;
3487;SDS011;38546;48.170;11.724;2023-05-02T06:17:29;9.37;;;7.47;;
3487;SDS011;38546;48.170;11.724;2023-05-02T06:20:19;13.03;;;7.40;;
3487;SDS011;38546;48.170;11.724;2023-05-02T06:23:08;8.53;;;6.90;;
3487;SDS011;38546;48.170;11.724;2023-05-02T06:25:58;8.93;;;6.67;;
3487;SDS011;38546;48.170;11.724;2023-05-02T06:28:50;9.33;;;6.97;;
3487;SDS011;38546;48.170;11.724;2023-05-02T06:31:39;6.77;;;6.13;;
3487;SDS011;38546;48.170;11.724;2023-05-02T06:34:32;9.67;;;6.70;;
3487;SDS011;38546;48.170;11.724;2023-05-02T06:37:21;9.53;;;7.37;;
3487;SDS011;38546;48.170;11.724;2023-05-02T06:40:11;10.20;;;6.20;;
3487;SDS011;38546;48.170;11.724;2023-05-02T06:43:01;11.67;;;7.70;;
3487;SDS011;38546;48.170;11.724;2023-05-02T06:45:53;7.67;;;6.37;;
3487;SDS011;38546;48.170;11.724;2023-05-02T06:48:43;9.30;;;7.80;;
3487;SDS011;38546;48.170;11.724;2023-05-02T06:51:32;10.60;;;6.87;;
3487;SDS011;38546;48.170;11.724;2023-05-02T06:54:21;10.30;;;6.97;;
3487;SDS011;38546;48.170;11.724;2023-05-02T06:57:10;13.20;;;8.60;;
3487;SDS011;38546;48.170;11.724;2023-05-02T06:59:59;11.83;;;8.63;;
3487;SDS011;38546;48.170;11.724;2023-05-02T07:02:48;9.00;;;7.07;;
3487;SDS011;38546;48.170;11.724;2023-05-02T07:05:37;10.00;;;7.97;;
3487;SDS011;38546;48.170;11.724;2023-05-02T07:08:26;11.87;;;7.43;;
3487;SDS011;38546;48.170;11.724;2023-05-02T07:11:15;10.60;;;7.40;;
3487;SDS011;38546;48.170;11.724;2023-05-02T07:14:04;8.10;;;6.43;;
3487;SDS011;38546;48.170;11.724;2023-05-02T07:16:53;14.37;;;7.60;;
3487;SDS011;38546;48.170;11.724;2023-05-02T07:19:43;11.00;;;7.57;;
3487;SDS011;38546;48.170;11.724;2023-05-02T07:22:31;8.53;;;7.40;;
3487;SDS011;38546;48.170;11.724;2023-05-02T07:25:20;7.63;;;6.83;;
3487;SDS011;38546;48.170;11.724;2023-05-02T07:28:09;13.37;;;7.87;;
3487;SDS011;38546;48.170;11.724;2023-05-02T07:30:58;10.43;;;7.90;;
3487;SDS011;38546;48.170;11.724;2023-05-02T07:33:48;12.50;;;8.33;;
3487;SDS011;38546;48.170;11.724;2023-05-02T07:36:37;8.47;;;7.13;;
3487;SDS011;38546;48.170;11.724;2023-05-02T07:39:26;7.60;;;6.83;;
3487;SDS011;38546;48.170;11.724;2023-05-02T07:42:16;9.53;;;7.10;;
3487;SDS011;38546;48.170;11.724;2023-05-02T07:45:05;9.47;;;7.40;;
3487;SDS011;38546;48.170;11.724;2023-05-02T07:47:55;10.13;;;7.90;;
3487;SDS011;38546;48.170;11.724;2023-05-02T07:50:44;11.33;;;8.13;;
3487;SDS011;38546;48.170;11.724;2023-05-02T07:53:33;9.23;;;7.20;;
3487;SDS011;38546;48.170;11.724;2023-05-02T07:56:23;11.27;;;8.40;;
3487;SDS011;38546;48.170;11.724;2023-05-02T07:59:12;10.40;;;8.73;;
3487;SDS011;38546;48.170;11.724;2023-05-02T08:02:02;12.20;;;8.60;;
3487;SDS011;38546;48.170;11.724;2023-05-02T08:04:51;11.47;;;8.40;;
3487;SDS011;38546;48.170;11.724;2023-05-02T08:07:41;11.70;;;8.57;;
3487;SDS011;38546;48.170;11.724;2023-05-02T08:10:30;9.57;;;7.20;;
3487;SDS011;38546;48.170;11.724;2023-05-02T08:13:19;11.63;;;8.80;;
3487;SDS011;38546;48.170;11.724;2023-05-02T08:16:08;18.47;;;9.77;;
3487;SDS011;38546;48.170;11.724;2023-05-02T08:18:58;10.50;;;8.87;;
3487;SDS011;38546;48.170;11.724;2023-05-02T08:21:47;10.23;;;8.07;;
3487;SDS011;38546;48.170;11.724;2023-05-02T08:24:37;12.70;;;8.17;;
3487;SDS011;38546;48.170;11.724;2023-05-02T08:27:26;15.03;;;9.60;;
3487;SDS011;38546;48.170;11.724;2023-05-02T08:30:15;9.70;;;8.20;;
3487;SDS011;38546;48.170;11.724;2023-05-02T08:33:05;10.10;;;8.30;;
3487;SDS011;38546;48.170;11.724;2023-05-02T08:35:54;19.23;;;8.53;;
3487;SDS011;38546;48.170;11.724;2023-05-02T08:38:43;11.13;;;9.20;;
3487;SDS011;38546;48.170;11.724;2023-05-02T08:41:34;14.33;;;10.47;;
3487;SDS011;38546;48.170;11.724;2023-05-02T08:44:23;9.83;;;7.97;;
3487;SDS011;38546;48.170;11.724;2023-05-02T08:47:13;13.07;;;9.47;;
3487;SDS011;38546;48.170;11.724;2023-05-02T08:50:04;13.53;;;9.80;;
3487;SDS011;38546;48.170;11.724;2023-05-02T08:52:54;10.60;;;9.07;;
3487;SDS011;38546;48.170;11.724;2023-05-02T08:55:45;13.27;;;9.60;;
3487;SDS011;38546;48.170;11.724;2023-05-02T08:58:37;12.27;;;8.30;;
3487;SDS011;38546;48.170;11.724;2023-05-02T09:01:29;14.50;;;8.87;;
3487;SDS011;38546;48.170;11.724;2023-05-02T09:04:19;17.50;;;9.63;;
3487;SDS011;38546;48.170;11.724;2023-05-02T09:07:15;14.13;;;9.00;;
3487;SDS011;38546;48.170;11.724;2023-05-02T09:10:04;10.80;;;8.63;;
3487;SDS011;38546;48.170;11.724;2023-05-02T09:12:56;16.00;;;9.70;;
3487;SDS011;38546;48.170;11.724;2023-05-02T09:15:55;12.67;;;8.93;;
3487;SDS011;38546;48.170;11.724;2023-05-02T09:18:53;11.33;;;8.50;;
3487;SDS011;38546;48.170;11.724;2023-05-02T09:21:44;10.10;;;8.60;;
3487;SDS011;38546;48.170;11.724;2023-05-02T09:24:34;13.53;;;10.00;;
3487;SDS011;38546;48.170;11.724;2023-05-02T09:27:23;11.30;;;9.50;;
3487;SDS011;38546;48.170;11.724;2023-05-02T09:30:17;12.30;;;9.13;;
3487;SDS011;38546;48.170;11.724;2023-05-02T09:33:12;15.53;;;8.87;;
3487;SDS011;38546;48.170;11.724;2023-05-02T09:36:16;8.83;;;6.53;;
3487;SDS011;38546;48.170;11.724;2023-05-02T09:39:08;11.00;;;8.67;;
3487;SDS011;38546;48.170;11.724;2023-05-02T09:42:01;11.77;;;8.70;;
3487;SDS011;38546;48.170;11.724;2023-05-02T09:44:51;12.87;;;9.97;;
3487;SDS011;38546;48.170;11.724;2023-05-02T09:47:41;10.70;;;8.50;;
3487;SDS011;38546;48.170;11.724;2023-05-02T09:50:34;13.60;;;8.63;;
3487;SDS011;38546;48.170;11.724;2023-05-02T09:53:25;10.83;;;8.60;;
3487;SDS011;38546;48.170;11.724;2023-05-02T09:56:16;12.00;;;8.90;;
3487;SDS011;38546;48.170;11.724;2023-05-02T09:59:12;14.80;;;11.20;;
3487;SDS011;38546;48.170;11.724;2023-05-02T10:02:04;15.27;;;9.70;;
3487;SDS011;38546;48.170;11.724;2023-05-02T10:04:55;16.10;;;10.07;;
3487;SDS011;38546;48.170;11.724;2023-05-02T10:07:46;13.90;;;9.67;;
3487;SDS011;38546;48.170;11.724;2023-05-02T10:10:40;12.77;;;10.83;;
3487;SDS011;38546;48.170;11.724;2023-05-02T10:13:39;19.70;;;10.20;;
3487;SDS011;38546;48.170;11.724;2023-05-02T10:16:30;15.00;;;11.37;;
3487;SDS011;38546;48.170;11.724;2023-05-02T10:19:23;12.70;;;10.20;;
3487;SDS011;38546;48.170;11.724;2023-05-02T10:22:18;8.97;;;8.07;;
3487;SDS011;38546;48.170;11.724;2023-05-02T10:25:07;6.50;;;6.00;;
3487;SDS011;38546;48.170;11.724;2023-05-02T10:27:57;13.80;;;8.60;;
3487;SDS011;38546;48.170;11.724;2023-05-02T10:30:47;13.80;;;10.20;;
3487;SDS011;38546;48.170;11.724;2023-05-02T10:33:38;14.83;;;9.80;;
3487;SDS011;38546;48.170;11.724;2023-05-02T10:36:28;18.10;;;11.53;;
3487;SDS011;38546;48.170;11.724;2023-05-02T10:39:21;17.23;;;11.70;;
3487;SDS011;38546;48.170;11.724;2023-05-02T10:42:12;22.37;;;13.77;;
3487;SDS011;38546;48.170;11.724;2023-05-02T10:45:02;14.63;;;10.67;;
3487;SDS011;38546;48.170;11.724;2023-05-02T10:48:10;14.90;;;11.17;;
3487;SDS011;38546;48.170;11.724;2023-05-02T10:51:12;20.00;;;12.63;;
3487;SDS011;38546;48.170;11.724;2023-05-02T10:54:23;20.47;;;13.30;;
3487;SDS011;38546;48.170;11.724;2023-05-02T10:57:13;19.80;;;13.37;;
3487;SDS011;38546;48.170;11.724;2023-05-02T11:00:21;23.80;;;15.20;;
3487;SDS011;38546;48.170;11.724;2023-05-02T11:03:13;23.13;;;15.67;;
3487;SDS011;38546;48.170;11.724;2023-05-02T11:06:05;21.73;;;15.17;;
3487;SDS011;38546;48.170;11.724;2023-05-02T11:15:56;17.50;;;12.03;;
3487;SDS011;38546;48.170;11.724;2023-05-02T11:18:58;18.70;;;12.47;;
3487;SDS011;38546;48.170;11.724;2023-05-02T11:21:49;18.50;;;13.50;;
3487;SDS011;38546;48.170;11.724;2023-05-02T11:24:41;15.57;;;11.70;;
3487;SDS011;38546;48.170;11.724;2023-05-02T11:27:35;16.47;;;11.80;;
3487;SDS011;38546;48.170;11.724;2023-05-02T11:30:38;13.00;;;8.93;;
3487;SDS011;38546;48.170;11.724;2023-05-02T11:33:32;11.87;;;9.57;;
3487;SDS011;38546;48.170;11.724;2023-05-02T11:36:32;14.70;;;11.57;;
3487;SDS011;38546;48.170;11.724;2023-05-02T11:39:22;20.70;;;12.90;;
3487;SDS011;38546;48.170;11.724;2023-05-02T11:42:28;19.70;;;13.30;;
3487;SDS011;38546;48.170;11.724;2023-05-02T11:45:18;20.40;;;13.47;;
3487;SDS011;38546;48.170;11.724;2023-05-02T11:48:11;20.77;;;14.10;;
3487;SDS011;38546;48.170;11.724;2023-05-02T11:51:03;17.20;;;11.70;;
3487;SDS011;38546;48.170;11.724;2023-05-02T11:53:54;15.40;;;11.43;;
3487;SDS011;38546;48.170;11.724;2023-05-02T11:56:44;20.87;;;13.57;;
3487;SDS011;38546;48.170;11.724;2023-05-02T11:59:56;17.93;;;12.50;;
3487;SDS011;38546;48.170;11.724;2023-05-02T12:02:45;21.80;;;12.97;;
3487;SDS011;38546;48.170;11.724;2023-05-02T12:05:36;16.77;;;12.40;;
3487;SDS011;38546;48.170;11.724;2023-05-02T12:08:26;14.73;;;11.80;;
3487;SDS011;38546;48.170;11.724;2023-05-02T12:11:16;18.03;;;12.40;;
3487;SDS011;38546;48.170;11.724;2023-05-02T12:14:06;12.73;;;9.97;;
3487;SDS011;38546;48.170;11.724;2023-05-02T12:16:56;12.77;;;9.50;;
3487;SDS011;38546;48.170;11.724;2023-05-02T12:19:47;9.50;;;7.60;;
3487;SDS011;38546;48.170;11.724;2023-05-02T12:22:38;12.03;;;8.10;;
3487;SDS011;38546;48.170;11.724;2023-05-02T12:25:28;11.47;;;9.37;;
3487;SDS011;38546;48.170;11.724;2023-05-02T12:28:18;11.03;;;8.37;;
3487;SDS011;38546;48.170;11.724;2023-05-02T12:31:09;11.37;;;8.90;;
3487;SDS011;38546;48.170;11.724;2023-05-02T12:33:59;12.90;;;9.53;;
3487;SDS011;38546;48.170;11.724;2023-05-02T12:36:48;16.30;;;10.40;;
3487;SDS011;38546;48.170;11.724;2023-05-02T12:39:39;9.83;;;7.77;;
3487;SDS011;38546;48.170;11.724;2023-05-02T12:42:31;13.10;;;8.83;;
3487;SDS011;38546;48.170;11.724;2023-05-02T12:45:22;11.30;;;9.10;;
3487;SDS011;38546;48.170;11.724;2023-05-02T12:48:22;12.57;;;9.20;;
3487;SDS011;38546;48.170;11.724;2023-05-02T12:51:22;13.63;;;10.10;;
3487;SDS011;38546;48.170;11.724;2023-05-02T12:54:18;12.53;;;9.00;;
3487;SDS011;38546;48.170;11.724;2023-05-02T12:57:08;10.63;;;8.20;;
3487;SDS011;38546;48.170;11.724;2023-05-02T12:59:58;12.30;;;8.93;;
3487;SDS011;38546;48.170;11.724;2023-05-02T13:02:48;10.27;;;7.67;;
3487;SDS011;38546;48.170;11.724;2023-05-02T13:05:37;12.83;;;7.97;;
3487;SDS011;38546;48.170;11.724;2023-05-02T13:08:26;8.47;;;7.60;;
3487;SDS011;38546;48.170;11.724;2023-05-02T13:11:16;6.67;;;6.07;;
3487;SDS011;38546;48.170;11.724;2023-05-02T13:14:05;7.57;;;6.17;;
3487;SDS011;38546;48.170;11.724;2023-05-02T13:16:54;7.73;;;6.33;;
3487;SDS011;38546;48.170;11.724;2023-05-02T13:19:44;8.67;;;6.53;;
3487;SDS011;38546;48.170;11.724;2023-05-02T13:22:33;6.40;;;5.80;;
3487;SDS011;38546;48.170;11.724;2023-05-02T13:25:25;8.10;;;6.47;;
3487;SDS011;38546;48.170;11.724;2023-05-02T13:28:14;7.10;;;6.40;;
3487;SDS011;38546;48.170;11.724;2023-05-02T13:31:04;7.60;;;6.33;;
3487;SDS011;38546;48.170;11.724;2023-05-02T13:33:53;8.07;;;6.73;;
3487;SDS011;38546;48.170;11.724;2023-05-02T13:36:42;8.27;;;7.27;;
3487;SDS011;38546;48.170;11.724;2023-05-02T13:39:33;9.13;;;6.90;;
3487;SDS011;38546;48.170;11.724;2023-05-02T13:42:23;10.10;;;6.40;;
3487;SDS011;38546;48.170;11.724;2023-05-02T13:45:12;6.50;;;5.77;;
3487;SDS011;38546;48.170;11.724;2023-05-02T13:48:02;6.70;;;6.00;;
3487;SDS011;38546;48.170;11.724;2023-05-02T13:50:52;6.60;;;5.67;;
3487;SDS011;38546;48.170;11.724;2023-05-02T13:53:41;5.83;;;5.17;;
3487;SDS011;38546;48.170;11.724;2023-05-02T13:56:30;8.13;;;5.43;;
3487;SDS011;38546;48.170;11.724;2023-05-02T13:59:20;6.43;;;5.63;;
3487;SDS011;38546;48.170;11.724;2023-05-02T14:02:09;8.23;;;7.20;;
3487;SDS011;38546;48.170;11.724;2023-05-02T14:04:58;8.63;;;7.20;;
3487;SDS011;38546;48.170;11.724;2023-05-02T14:07:47;8.40;;;6.80;;
3487;SDS011;38546;48.170;11.724;2023-05-02T14:10:37;9.53;;;7.40;;
3487;SDS011;38546;48.170;11.724;2023-05-02T14:13:27;10.77;;;7.63;;
3487;SDS011;38546;48.170;11.724;2023-05-02T14:16:16;10.10;;;8.23;;
3487;SDS011;38546;48.170;11.724;2023-05-02T14:19:05;10.63;;;7.60;;
3487;SDS011;38546;48.170;11.724;2023-05-02T14:21:54;9.90;;;8.43;;
3487;SDS011;38546;48.170;11.724;2023-05-02T14:24:43;11.40;;;9.20;;
3487;SDS011;38546;48.170;11.724;2023-05-02T14:27:33;13.93;;;8.90;;
3487;SDS011;38546;48.170;11.724;2023-05-02T14:30:22;12.70;;;8.90;;
3487;SDS011;38546;48.170;11.724;2023-05-02T14:33:12;16.03;;;11.37;;
3487;SDS011;38546;48.170;11.724;2023-05-02T14:36:01;10.83;;;8.63;;
3487;SDS011;38546;48.170;11.724;2023-05-02T14:38:51;6.43;;;5.57;;
3487;SDS011;38546;48.170;11.724;2023-05-02T14:41:40;7.90;;;7.10;;
3487;SDS011;38546;48.170;11.724;2023-05-02T14:44:29;8.90;;;7.43;;
3487;SDS011;38546;48.170;11.724;2023-05-02T14:47:19;11.77;;;8.77;;
3487;SDS011;38546;48.170;11.724;2023-05-02T14:50:09;11.27;;;8.27;;
3487;SDS011;38546;48.170;11.724;2023-05-02T14:52:59;9.97;;;7.47;;
3487;SDS011;38546;48.170;11.724;2023-05-02T14:55:48;11.83;;;8.57;;
3487;SDS011;38546;48.170;11.724;2023-05-02T14:58:37;9.30;;;7.30;;
3487;SDS011;38546;48.170;11.724;2023-05-02T15:01:27;9.63;;;6.43;;
3487;SDS011;38546;48.170;11.724;2023-05-02T15:04:16;9.30;;;7.10;;
3487;SDS011;38546;48.170;11.724;2023-05-02T15:07:07;8.40;;;7.53;;
3487;SDS011;38546;48.170;11.724;2023-05-02T15:09:56;10.97;;;8.30;;
3487;SDS011;38546;48.170;11.724;2023-05-02T15:12:45;9.63;;;7.40;;
3487;SDS011;38546;48.170;11.724;2023-05-02T15:15:38;9.30;;;6.80;;
3487;SDS011;38546;48.170;11.724;2023-05-02T15:18:28;7.80;;;6.80;;
3487;SDS011;38546;48.170;11.724;2023-05-02T15:21:18;7.23;;;6.40;;
3487;SDS011;38546;48.170;11.724;2023-05-02T15:24:07;15.30;;;9.77;;
3487;SDS011;38546;48.170;11.724;2023-05-02T15:26:56;9.33;;;7.13;;
3487;SDS011;38546;48.170;11.724;2023-05-02T15:29:46;13.70;;;7.60;;
3487;SDS011;38546;48.170;11.724;2023-05-02T15:32:35;8.77;;;6.73;;
3487;SDS011;38546;48.170;11.724;2023-05-02T15:35:24;6.60;;;5.67;;
3487;SDS011;38546;48.170;11.724;2023-05-02T15:38:13;6.50;;;5.70;;
3487;SDS011;38546;48.170;11.724;2023-05-02T15:41:04;7.60;;;5.47;;
3487;SDS011;38546;48.170;11.724;2023-05-02T15:43:55;8.10;;;5.77;;
3487;SDS011;38546;48.170;11.724;2023-05-02T15:46:45;6.37;;;5.43;;
3487;SDS011;38546;48.170;11.724;2023-05-02T15:49:34;9.20;;;7.40;;
3487;SDS011;38546;48.170;11.724;2023-05-02T15:52:23;7.03;;;6.33;;
3487;SDS011;38546;48.170;11.724;2023-05-02T15:55:12;9.63;;;7.40;;
3487;SDS011;38546;48.170;11.724;2023-05-02T15:58:02;8.03;;;6.50;;
3487;SDS011;38546;48.170;11.724;2023-05-02T16:00:52;8.00;;;6.10;;
3487;SDS011;38546;48.170;11.724;2023-05-02T16:03:42;9.40;;;6.23;;
3487;SDS011;38546;48.170;11.724;2023-05-02T16:06:31;6.90;;;5.83;;
3487;SDS011;38546;48.170;11.724;2023-05-02T16:09:21;5.93;;;5.33;;
3487;SDS011;38546;48.170;11.724;2023-05-02T16:12:10;6.13;;;5.53;;
3487;SDS011;38546;48.170;11.724;2023-05-02T16:15:00;5.60;;;5.10;;
3487;SDS011;38546;48.170;11.724;2023-05-02T16:17:49;6.67;;;6.00;;
3487;SDS011;38546;48.170;11.724;2023-05-02T16:20:38;6.20;;;5.30;;
3487;SDS011;38546;48.170;11.724;2023-05-02T16:23:27;12.93;;;7.83;;
3487;SDS011;38546;48.170;11.724;2023-05-02T16:26:16;7.00;;;6.30;;
3487;SDS011;38546;48.170;11.724;2023-05-02T16:29:05;7.00;;;6.30;;
3487;SDS011;38546;48.170;11.724;2023-05-02T16:31:54;7.80;;;6.00;;
3487;SDS011;38546;48.170;11.724;2023-05-02T16:34:43;6.90;;;6.20;;
3487;SDS011;38546;48.170;11.724;2023-05-02T16:37:33;12.40;;;8.70;;
3487;SDS011;38546;48.170;11.724;2023-05-02T16:40:23;9.53;;;8.43;;
3487;SDS011;38546;48.170;11.724;2023-05-02T16:43:12;10.17;;;8.17;;
3487;SDS011;38546;48.170;11.724;2023-05-02T16:46:01;9.63;;;8.40;;
3487;SDS011;38546;48.170;11.724;2023-05-02T16:48:53;9.27;;;7.50;;
3487;SDS011;38546;48.170;11.724;2023-05-02T16:51:41;11.40;;;8.10;;
3487;SDS011;38546;48.170;11.724;2023-05-02T16:54:30;9.80;;;8.20;;
3487;SDS011;38546;48.170;11.724;2023-05-02T16:57:19;8.20;;;6.87;;
3487;SDS011;38546;48.170;11.724;2023-05-02T17:00:09;8.60;;;6.87;;
3487;SDS011;38546;48.170;11.724;2023-05-02T17:03:02;8.60;;;7.60;;
3487;SDS011;38546;48.170;11.724;2023-05-02T17:05:51;8.60;;;6.77;;
3487;SDS011;38546;48.170;11.724;2023-05-02T17:08:40;11.40;;;7.40;;
3487;SDS011;38546;48.170;11.724;2023-05-02T17:11:29;11.60;;;7.80;;
3487;SDS011;38546;48.170;11.724;2023-05-02T17:14:18;12.40;;;9.17;;
3487;SDS011;38546;48.170;11.724;2023-05-02T17:17:07;9.00;;;7.30;;